Time;durP1;ratioP1;P1;durP2;ratioP2;P2;SDS_P1;SDS_P2;PMS_P1;PMS_P2;Temp;Humidity;BMP_temperature;BMP_pressure;BME280_temperature;BME280_humidity;BME280_pressure;Samples;Min_cycle;Max_cycle;Signal;HPM_P1;HPM_P2
2023/04/26 00:00:35;;;;;;;;;;;;;;;19.52;47.19;99688.33;103798;1289;62193;-83
2023/04/26 00:03:01;;;;;;;;;;;;;;;19.51;47.16;99686.36;103844;1289;62127;-83
2023/04/26 00:05:28;;;;;;;;;;;;;;;19.52;47.22;99678.85;103784;1287;72473;-83
2023/04/26 00:07:54;;;;;;;;;;;;;;;19.51;46.96;99681.55;103848;1288;63355;-83
2023/04/26 00:10:19;;;;;;;;;;;;;;;19.52;47.20;99679.95;103857;1283;62110;-82
2023/04/26 00:12:45;;;;;;;;;;;;;;;19.52;47.05;99681.19;103924;1288;62341;-84
2023/04/26 00:15:16;;;;;;;;;;;;;;;19.51;46.96;99680.52;103989;1287;63352;-82
2023/04/26 00:17:41;;;;;;;;;;;;;;;19.51;47.03;99681.74;103847;1287;72538;-81
2023/04/26 00:20:09;;;;;;;;;;;;;;;19.51;47.01;99679.46;103784;1288;62222;-82
2023/04/26 00:22:35;;;;;;;;;;;;;;;19.51;46.94;99681.20;103840;1286;62488;-82
2023/04/26 00:25:00;;;;;;;;;;;;;;;19.50;47.00;99678.07;103826;1286;62196;-83
2023/04/26 00:27:26;;;;;;;;;;;;;;;19.51;47.07;99675.20;103693;1289;62615;-83
2023/04/26 00:29:51;;;;;;;;;;;;;;;19.51;47.00;99675.02;103676;1286;63383;-83
2023/04/26 00:32:17;;;;;;;;;;;;;;;19.51;46.90;99678.05;103861;1289;62108;-83
2023/04/26 00:34:42;;;;;;;;;;;;;;;19.51;46.84;99673.25;103863;1286;62350;-83
2023/04/26 00:37:08;;;;;;;;;;;;;;;19.50;46.91;99673.98;103848;1289;62191;-84
2023/04/26 00:39:33;;;;;;;;;;;;;;;19.50;46.96;99672.91;103855;1283;62736;-82
2023/04/26 00:41:59;;;;;;;;;;;;;;;19.50;46.83;99674.38;103761;1289;62249;-83
2023/04/26 00:44:24;;;;;;;;;;;;;;;19.50;46.75;99672.23;103886;1286;62623;-83
2023/04/26 00:46:51;;;;;;;;;;;;;;;19.50;46.76;99678.48;103791;1283;62199;-82
2023/04/26 00:49:17;;;;;;;;;;;;;;;19.49;46.72;99677.67;103876;1283;62189;-83
2023/04/26 00:51:43;;;;;;;;;;;;;;;19.49;46.84;99682.64;103892;1284;62075;-84
2023/04/26 00:54:09;;;;;;;;;;;;;;;19.50;46.76;99686.35;103805;1283;62184;-83
2023/04/26 00:56:35;;;;;;;;;;;;;;;19.49;46.71;99688.01;103800;1288;62212;-82
2023/04/26 00:59:01;;;;;;;;;;;;;;;19.49;46.63;99687.67;103671;1283;63306;-83
2023/04/26 01:01:27;;;;;;;;;;;;;;;19.49;46.76;99689.64;103833;1288;62094;-82
2023/04/26 01:03:52;;;;;;;;;;;;;;;19.49;46.65;99686.27;103820;1288;62163;-83
2023/04/26 01:06:18;;;;;;;;;;;;;;;19.49;46.68;99689.81;103817;1288;62253;-82
2023/04/26 01:08:43;;;;;;;;;;;;;;;19.48;46.64;99679.73;103727;1289;62196;-83
2023/04/26 01:11:09;;;;;;;;;;;;;;;19.48;46.74;99678.44;103776;1286;62248;-82
2023/04/26 01:13:35;;;;;;;;;;;;;;;19.48;46.71;99676.67;103834;1282;62101;-83
2023/04/26 01:16:01;;;;;;;;;;;;;;;19.48;46.72;99678.27;103852;1283;62184;-82
2023/04/26 01:18:27;;;;;;;;;;;;;;;19.48;46.55;99678.95;103751;1283;62238;-82
2023/04/26 01:20:53;;;;;;;;;;;;;;;19.48;46.61;99676.70;103979;1285;62177;-82
2023/04/26 01:23:18;;;;;;;;;;;;;;;19.48;46.62;99673.13;103838;1286;62194;-82
2023/04/26 01:25:43;;;;;;;;;;;;;;;19.48;46.50;99674.55;103811;1282;62626;-83
2023/04/26 01:28:09;;;;;;;;;;;;;;;19.47;46.57;99673.88;103789;1288;62267;-83
2023/04/26 01:30:35;;;;;;;;;;;;;;;19.47;46.40;99673.34;103815;1283;62221;-83
2023/04/26 01:33:00;;;;;;;;;;;;;;;19.47;46.46;99670.66;103838;1286;62171;-83
2023/04/26 01:35:26;;;;;;;;;;;;;;;19.47;46.50;99668.90;103865;1285;62185;-83
2023/04/26 01:37:51;;;;;;;;;;;;;;;19.47;46.53;99664.29;103617;1285;62199;-83
2023/04/26 01:40:17;;;;;;;;;;;;;;;19.46;46.56;99660.19;103847;1282;62175;-82
2023/04/26 01:42:42;;;;;;;;;;;;;;;19.47;46.52;99662.48;103793;1282;62742;-84
2023/04/26 01:45:08;;;;;;;;;;;;;;;19.47;46.46;99663.41;103826;1288;62273;-84
2023/04/26 01:47:34;;;;;;;;;;;;;;;19.47;46.33;99663.92;103854;1286;62234;-84
2023/04/26 01:50:00;;;;;;;;;;;;;;;19.47;46.41;99665.19;103785;1285;62565;-84
2023/04/26 01:52:25;;;;;;;;;;;;;;;19.46;46.42;99668.96;103817;1283;62199;-83
2023/04/26 01:54:51;;;;;;;;;;;;;;;19.47;46.45;99669.48;103784;1283;62790;-82
2023/04/26 01:57:17;;;;;;;;;;;;;;;19.46;46.38;99664.53;103700;1286;62312;-83
2023/04/26 01:59:42;;;;;;;;;;;;;;;19.46;46.36;99663.29;103678;1289;62188;-82
2023/04/26 02:02:08;;;;;;;;;;;;;;;19.46;46.41;99660.96;103570;1286;73769;-83
2023/04/26 02:04:36;;;;;;;;;;;;;;;19.46;46.40;99661.48;103520;1285;62190;-84
2023/04/26 02:07:01;;;;;;;;;;;;;;;19.46;46.29;99656.68;103490;1286;62425;-83
2023/04/26 02:09:28;;;;;;;;;;;;;;;19.46;46.26;99657.77;103639;1287;62210;-83
2023/04/26 02:11:53;;;;;;;;;;;;;;;19.46;46.25;99651.17;103462;1292;62346;-82
2023/04/26 02:14:19;;;;;;;;;;;;;;;19.45;46.25;99651.06;103391;1288;62257;-83
2023/04/26 02:16:45;;;;;;;;;;;;;;;19.45;46.34;99651.42;103627;1288;62241;-82
2023/04/26 02:19:10;;;;;;;;;;;;;;;19.44;46.24;99651.28;103603;1286;62302;-82
2023/04/26 02:21:55;;;;;;;;;;;;;;;19.45;46.30;99648.41;103567;1286;63369;-82
2023/04/26 02:24:21;;;;;;;;;;;;;;;19.45;46.14;99651.05;103598;1286;72558;-84
2023/04/26 02:26:46;;;;;;;;;;;;;;;19.44;46.09;99652.88;103506;1286;62800;-83
2023/04/26 02:29:12;;;;;;;;;;;;;;;19.44;46.30;99647.55;103651;1283;62184;-84
2023/04/26 02:31:37;;;;;;;;;;;;;;;19.44;46.22;99647.89;103807;1288;62171;-82
2023/04/26 02:34:03;;;;;;;;;;;;;;;19.44;46.19;99644.00;103931;1288;62186;-82
2023/04/26 02:36:28;;;;;;;;;;;;;;;19.43;46.27;99642.77;103705;1288;62211;-82
2023/04/26 02:38:55;;;;;;;;;;;;;;;19.43;46.14;99641.17;103660;1284;76343;-82
2023/04/26 02:41:20;;;;;;;;;;;;;;;19.43;46.14;99643.83;103822;1288;62277;-83
2023/04/26 02:43:46;;;;;;;;;;;;;;;19.43;46.20;99642.25;103649;1288;63317;-83
2023/04/26 02:46:11;;;;;;;;;;;;;;;19.43;46.13;99639.73;103578;1289;62133;-82
2023/04/26 02:48:37;;;;;;;;;;;;;;;19.43;46.04;99638.34;103711;1286;62781;-83
2023/04/26 02:51:03;;;;;;;;;;;;;;;19.43;46.16;99640.52;103597;1286;76125;-83
2023/04/26 02:53:28;;;;;;;;;;;;;;;19.43;46.02;99641.20;103540;1290;63461;-82
2023/04/26 02:55:54;;;;;;;;;;;;;;;19.42;45.91;99641.60;103430;1291;64188;-82
2023/04/26 02:58:20;;;;;;;;;;;;;;;19.42;46.02;99644.45;103411;1291;62190;-83
2023/04/26 03:00:53;;;;;;;;;;;;;;;19.42;46.00;99650.54;103681;1290;62782;-83
2023/04/26 03:03:19;;;;;;;;;;;;;;;19.42;46.14;99653.91;103662;1285;76473;-82
2023/04/26 03:05:45;;;;;;;;;;;;;;;19.42;45.95;99653.06;103499;1285;62676;-83
2023/04/26 03:08:10;;;;;;;;;;;;;;;19.42;46.14;99655.91;103481;1291;62203;-83
2023/04/26 03:10:36;;;;;;;;;;;;;;;19.42;46.00;99657.52;103446;1291;62329;-82
2023/04/26 03:13:03;;;;;;;;;;;;;;;19.42;45.98;99655.20;103508;1286;63522;-83
2023/04/26 03:15:28;;;;;;;;;;;;;;;19.42;46.05;99653.23;103500;1286;63556;-83
2023/04/26 03:17:54;;;;;;;;;;;;;;;19.41;45.82;99650.23;103450;1291;62176;-83
2023/04/26 03:20:20;;;;;;;;;;;;;;;19.42;45.90;99653.08;103627;1289;62223;-82
2023/04/26 03:22:45;;;;;;;;;;;;;;;19.41;45.90;99653.14;103450;1291;62677;-84
2023/04/26 03:25:12;;;;;;;;;;;;;;;19.41;45.90;99658.48;103574;1285;62430;-83
2023/04/26 03:27:37;;;;;;;;;;;;;;;19.41;45.93;99664.02;103824;1288;62181;-83
2023/04/26 03:30:03;;;;;;;;;;;;;;;19.41;45.89;99666.36;103642;1288;63361;-83
2023/04/26 03:32:30;;;;;;;;;;;;;;;19.41;45.78;99671.31;103697;1286;63330;-83
2023/04/26 03:34:55;;;;;;;;;;;;;;;19.41;45.86;99674.55;103736;1299;62196;-83
2023/04/26 03:37:21;;;;;;;;;;;;;;;19.41;45.77;99680.11;103829;1286;62245;-81
2023/04/26 03:39:46;;;;;;;;;;;;;;;19.41;45.91;99679.20;103625;1284;62180;-83
2023/04/26 03:42:12;;;;;;;;;;;;;;;19.41;45.81;99679.20;103634;1285;62886;-83
2023/04/26 03:44:37;;;;;;;;;;;;;;;19.41;45.84;99670.83;103810;1288;62174;-82
2023/04/26 03:47:04;;;;;;;;;;;;;;;19.41;45.71;99674.41;103694;1288;62269;-83
2023/04/26 03:49:29;;;;;;;;;;;;;;;19.41;45.76;99673.48;103625;1285;62165;-83
2023/04/26 03:51:55;;;;;;;;;;;;;;;19.41;45.91;99677.07;103638;1286;62251;-82
2023/04/26 03:54:21;;;;;;;;;;;;;;;19.41;45.74;99683.14;103712;1283;62077;-82
2023/04/26 03:56:46;;;;;;;;;;;;;;;19.40;45.69;99684.31;103637;1286;62283;-83
2023/04/26 03:59:12;;;;;;;;;;;;;;;19.39;45.61;99689.91;103674;1289;62219;-83
2023/04/26 04:01:37;;;;;;;;;;;;;;;19.39;45.71;99695.45;103847;1283;62116;-84
2023/04/26 04:04:03;;;;;;;;;;;;;;;19.38;45.63;99699.09;103893;1288;62347;-83
2023/04/26 04:06:29;;;;;;;;;;;;;;;19.37;45.45;99701.63;103792;1283;62092;-83
2023/04/26 04:08:54;;;;;;;;;;;;;;;19.37;45.49;99704.36;103874;1288;62144;-84
2023/04/26 04:11:20;;;;;;;;;;;;;;;19.36;45.51;99702.80;104164;1282;62644;-82
2023/04/26 04:13:45;;;;;;;;;;;;;;;19.35;45.30;99705.69;104124;1283;62124;-83
2023/04/26 04:16:11;;;;;;;;;;;;;;;19.35;45.31;99706.48;104306;1288;63317;-83
2023/04/26 04:18:36;;;;;;;;;;;;;;;19.34;45.23;99710.48;104224;1282;62114;-80
2023/04/26 04:21:05;;;;;;;;;;;;;;;19.33;45.34;99712.34;104321;1285;62097;-82
2023/04/26 04:23:31;;;;;;;;;;;;;;;19.32;45.28;99717.39;103833;1282;76278;-83
2023/04/26 04:26:00;;;;;;;;;;;;;;;19.31;45.34;99718.02;103819;1289;62768;-83
2023/04/26 04:28:26;;;;;;;;;;;;;;;19.30;45.29;99717.39;104078;1282;62113;-84
2023/04/26 04:30:51;;;;;;;;;;;;;;;19.29;45.22;99715.52;104144;1283;62999;-82
2023/04/26 04:33:17;;;;;;;;;;;;;;;19.23;45.29;99714.67;104433;1283;62175;-81
2023/04/26 04:35:44;;;;;;;;;;;;;;;19.21;45.23;99713.64;104329;1282;62181;-81
2023/04/26 04:38:09;;;;;;;;;;;;;;;19.20;45.21;99721.03;104140;1283;62183;-83
2023/04/26 04:40:35;;;;;;;;;;;;;;;19.19;45.18;99720.08;104084;1283;62184;-83
2023/04/26 04:43:01;;;;;;;;;;;;;;;19.16;45.12;99725.60;104147;1288;62187;-83
2023/04/26 04:45:27;;;;;;;;;;;;;;;19.15;45.17;99737.28;104127;1286;75937;-83
2023/04/26 04:47:53;;;;;;;;;;;;;;;19.14;45.25;99743.08;104159;1286;62128;-81
2023/04/26 04:50:18;;;;;;;;;;;;;;;19.13;45.14;99740.32;104429;1283;63451;-82
2023/04/26 04:52:43;;;;;;;;;;;;;;;19.13;45.26;99747.50;104160;1285;62545;-83
2023/04/26 04:55:09;;;;;;;;;;;;;;;19.11;45.07;99752.58;104342;1287;62232;-81
2023/04/26 04:57:36;;;;;;;;;;;;;;;19.10;45.17;99752.65;104598;1288;62132;-82
2023/04/26 05:00:08;;;;;;;;;;;;;;;19.09;45.26;99747.96;105000;1283;61683;-82
2023/04/26 05:02:34;;;;;;;;;;;;;;;19.08;45.10;99751.79;104829;1287;61941;-82
2023/04/26 05:05:00;;;;;;;;;;;;;;;19.05;45.14;99752.72;104844;1286;62277;-82
2023/04/26 05:07:26;;;;;;;;;;;;;;;19.03;45.00;99755.04;105308;1286;60293;-82
2023/04/26 05:09:51;;;;;;;;;;;;;;;18.99;45.10;99755.70;105426;1282;62081;-82
2023/04/26 05:12:17;;;;;;;;;;;;;;;18.99;45.16;99748.89;104985;1283;62108;-81
2023/04/26 05:14:42;;;;;;;;;;;;;;;19.01;45.25;99751.91;104866;1283;62742;-81
2023/04/26 05:17:08;;;;;;;;;;;;;;;19.03;45.27;99753.91;104897;1283;74730;-82
2023/04/26 05:19:33;;;;;;;;;;;;;;;19.04;45.11;99750.98;104804;1282;62200;-81
2023/04/26 05:21:59;;;;;;;;;;;;;;;19.05;45.17;99754.13;105037;1282;62165;-81
2023/04/26 05:24:24;;;;;;;;;;;;;;;19.06;45.13;99755.09;104965;1283;62190;-80
2023/04/26 05:26:50;;;;;;;;;;;;;;;19.09;45.04;99755.97;104881;1283;62191;-80
2023/04/26 05:29:15;;;;;;;;;;;;;;;19.11;45.06;99756.33;105063;1282;62136;-80
2023/04/26 05:31:41;;;;;;;;;;;;;;;19.14;45.03;99752.23;105163;1282;62274;-80
2023/04/26 05:34:06;;;;;;;;;;;;;;;19.15;45.04;99757.64;105331;1282;62088;-80
2023/04/26 05:36:32;;;;;;;;;;;;;;;19.16;45.00;99756.69;105086;1282;62153;-82
2023/04/26 05:38:57;;;;;;;;;;;;;;;19.17;44.90;99761.02;104975;1282;61872;-82
2023/04/26 05:41:23;;;;;;;;;;;;;;;19.19;44.98;99756.77;105263;1283;73607;-82
2023/04/26 05:43:50;;;;;;;;;;;;;;;19.20;44.92;99760.07;105002;1288;62104;-82
2023/04/26 05:46:16;;;;;;;;;;;;;;;19.22;44.97;99761.17;105375;1283;62079;-82
2023/04/26 05:48:42;;;;;;;;;;;;;;;19.24;44.93;99760.14;104860;1282;62255;-82
2023/04/26 05:51:07;;;;;;;;;;;;;;;19.22;44.82;99756.02;105368;1283;61508;-84
2023/04/26 05:53:33;;;;;;;;;;;;;;;19.22;44.86;99754.95;105614;1283;62105;-84
2023/04/26 05:55:58;;;;;;;;;;;;;;;19.22;44.88;99755.61;105498;1282;62200;-83
2023/04/26 05:58:24;;;;;;;;;;;;;;;19.22;44.86;99761.85;105445;1283;63905;-83
2023/04/26 06:00:49;;;;;;;;;;;;;;;19.22;44.82;99766.32;105575;1282;62123;-85
2023/04/26 06:03:15;;;;;;;;;;;;;;;19.23;44.93;99760.18;105823;1284;63483;-82
2023/04/26 06:05:41;;;;;;;;;;;;;;;19.24;44.83;99758.67;105637;1283;62174;-82
2023/04/26 06:08:06;;;;;;;;;;;;;;;19.24;44.87;99760.63;105515;1282;62207;-81
2023/04/26 06:10:32;;;;;;;;;;;;;;;19.24;44.97;99753.33;105878;1282;62113;-82
2023/04/26 06:12:58;;;;;;;;;;;;;;;19.25;44.88;99750.97;105693;1283;62085;-82
2023/04/26 06:15:24;;;;;;;;;;;;;;;19.26;44.97;99744.08;105637;1282;62195;-82
2023/04/26 06:17:50;;;;;;;;;;;;;;;19.28;44.90;99738.39;105204;1282;60550;-82
2023/04/26 06:20:16;;;;;;;;;;;;;;;19.31;45.00;99735.17;105467;1282;60706;-82
2023/04/26 06:22:42;;;;;;;;;;;;;;;19.31;45.01;99730.30;105517;1282;61162;-82
2023/04/26 06:25:08;;;;;;;;;;;;;;;19.33;45.09;99719.30;105597;1283;62102;-81
2023/04/26 06:27:33;;;;;;;;;;;;;;;19.33;45.02;99714.66;105527;1283;61986;-82
2023/04/26 06:29:59;;;;;;;;;;;;;;;19.32;44.92;99710.96;105749;1282;60559;-82
2023/04/26 06:32:25;;;;;;;;;;;;;;;19.32;44.97;99712.74;105736;1282;62082;-81
2023/04/26 06:34:50;;;;;;;;;;;;;;;19.34;45.01;99714.22;105432;1282;62106;-81
2023/04/26 06:37:16;;;;;;;;;;;;;;;19.35;44.82;99721.98;105459;1282;60622;-82
2023/04/26 06:39:41;;;;;;;;;;;;;;;19.36;44.91;99723.65;105407;1283;60940;-82
2023/04/26 06:42:07;;;;;;;;;;;;;;;19.35;44.94;99728.38;105352;1283;61351;-82
2023/04/26 06:44:32;;;;;;;;;;;;;;;19.36;44.78;99731.91;105728;1282;62175;-82
2023/04/26 06:46:58;;;;;;;;;;;;;;;19.36;44.91;99731.17;105612;1283;62139;-82
2023/04/26 06:49:23;;;;;;;;;;;;;;;19.36;44.91;99729.34;105661;1284;62184;-82
2023/04/26 06:52:05;;;;;;;;;;;;;;;19.39;44.94;99728.05;104449;1292;598732;-83
2023/04/26 06:54:34;;;;;;;;;;;;;;;19.36;44.83;99732.02;104757;1294;72946;-82
2023/04/26 06:57:01;;;;;;;;;;;;;;;19.36;44.71;99733.80;104803;1295;59331;-82
2023/04/26 06:59:38;;;;;;;;;;;;;;;19.35;44.96;99738.15;104744;1295;59352;-82
2023/04/26 07:02:05;;;;;;;;;;;;;;;19.38;44.80;99739.02;105091;1292;72596;-81
2023/04/26 07:04:31;;;;;;;;;;;;;;;19.39;45.03;99741.61;104425;1292;697861;-81
2023/04/26 07:06:56;;;;;;;;;;;;;;;19.41;45.20;99739.45;105515;1290;59301;-81
2023/04/26 07:09:22;;;;;;;;;;;;;;;19.40;44.95;99732.95;105601;1291;58258;-80
2023/04/26 07:11:48;;;;;;;;;;;;;;;19.41;44.97;99731.69;105390;1289;59156;-81
2023/04/26 07:14:14;;;;;;;;;;;;;;;19.40;44.80;99731.52;105336;1291;72474;-81
2023/04/26 07:16:39;;;;;;;;;;;;;;;19.39;44.63;99736.59;105230;1292;59768;-81
2023/04/26 07:19:05;;;;;;;;;;;;;;;19.39;44.81;99737.68;105151;1291;59284;-83
2023/04/26 07:21:31;;;;;;;;;;;;;;;19.38;44.73;99740.48;105029;1289;59253;-83
2023/04/26 07:23:57;;;;;;;;;;;;;;;19.35;44.66;99738.74;104692;1292;58041;-82
2023/04/26 07:26:23;;;;;;;;;;;;;;;19.35;44.54;99741.81;105159;1291;60839;-83
2023/04/26 07:28:50;;;;;;;;;;;;;;;19.33;44.60;99743.15;104898;1290;73835;-83
2023/04/26 07:31:15;;;;;;;;;;;;;;;19.33;44.51;99743.88;105125;1290;60837;-82
2023/04/26 07:33:41;;;;;;;;;;;;;;;19.33;44.53;99742.45;104856;1292;60190;-82
2023/04/26 07:36:07;;;;;;;;;;;;;;;19.35;44.44;99740.17;104782;1292;59948;-82
2023/04/26 07:38:32;;;;;;;;;;;;;;;19.35;44.45;99740.71;105023;1292;59784;-83
2023/04/26 07:41:01;;;;;;;;;;;;;;;19.35;44.45;99740.71;105040;1292;61113;-82
2023/04/26 07:43:28;;;;;;;;;;;;;;;19.35;44.45;99742.15;104933;1291;59790;-83
2023/04/26 07:45:54;;;;;;;;;;;;;;;19.35;44.42;99747.87;105038;1292;59761;-83
2023/04/26 07:48:19;;;;;;;;;;;;;;;19.34;44.42;99742.02;104870;1289;59402;-82
2023/04/26 07:50:45;;;;;;;;;;;;;;;19.33;44.43;99744.79;104918;1289;59313;-83
2023/04/26 07:53:11;;;;;;;;;;;;;;;19.33;44.17;99752.46;104794;1291;59762;-82
2023/04/26 07:55:37;;;;;;;;;;;;;;;19.32;44.33;99750.03;106099;1289;57717;-83
2023/04/26 07:58:03;;;;;;;;;;;;;;;19.31;44.17;99756.02;105254;1293;59317;-82
2023/04/26 08:00:30;;;;;;;;;;;;;;;19.30;44.25;99758.91;105090;1288;72576;-82
2023/04/26 08:02:56;;;;;;;;;;;;;;;19.29;44.10;99760.25;105256;1290;60169;-82
2023/04/26 08:05:21;;;;;;;;;;;;;;;19.27;44.21;99758.64;105472;1289;59347;-82
2023/04/26 08:07:47;;;;;;;;;;;;;;;19.26;44.12;99761.73;105373;1291;59477;-82
2023/04/26 08:10:12;;;;;;;;;;;;;;;19.25;44.20;99761.64;105471;1290;58567;-81
2023/04/26 08:12:38;;;;;;;;;;;;;;;19.22;44.15;99760.43;105569;1289;58050;-82
2023/04/26 08:15:04;;;;;;;;;;;;;;;19.20;44.13;99758.48;105350;1289;59679;-84
2023/04/26 08:17:31;;;;;;;;;;;;;;;19.18;44.27;99756.83;105438;1289;59364;-82
2023/04/26 08:19:56;;;;;;;;;;;;;;;19.16;44.23;99760.23;105487;1289;72333;-82
2023/04/26 08:22:23;;;;;;;;;;;;;;;19.15;44.22;99768.92;105454;1288;72808;-82
2023/04/26 08:24:50;;;;;;;;;;;;;;;19.16;44.28;99770.41;105600;1289;58072;-83
2023/04/26 08:27:16;;;;;;;;;;;;;;;19.18;44.23;99773.10;105435;1289;59280;-81
2023/04/26 08:29:42;;;;;;;;;;;;;;;19.22;44.07;99769.23;105397;1288;59636;-82
2023/04/26 08:32:08;;;;;;;;;;;;;;;19.26;44.35;99766.21;105306;1289;59519;-82
2023/04/26 08:34:34;;;;;;;;;;;;;;;19.26;44.23;99759.05;105533;1289;58292;-83
2023/04/26 08:36:59;;;;;;;;;;;;;;;19.23;44.20;99764.48;105406;1289;59215;-82
2023/04/26 08:39:25;;;;;;;;;;;;;;;19.25;44.05;99768.23;105621;1289;58028;-81
2023/04/26 08:41:52;;;;;;;;;;;;;;;19.26;44.17;99773.33;105010;1289;72550;-82
2023/04/26 08:44:19;;;;;;;;;;;;;;;19.29;44.26;99772.73;104702;1289;72870;-82
2023/04/26 08:46:57;;;;;;;;;;;;;;;19.32;44.09;99763.61;104844;1289;59797;-82
2023/04/26 08:49:28;;;;;;;;;;;;;;;19.35;43.93;99761.59;104683;1289;60861;-83
2023/04/26 08:51:54;;;;;;;;;;;;;;;19.37;43.87;99760.83;104744;1290;72493;-81
2023/04/26 08:54:20;;;;;;;;;;;;;;;19.38;43.86;99764.67;104640;1294;59617;-82
2023/04/26 08:56:45;;;;;;;;;;;;;;;19.40;43.79;99769.17;104847;1291;59637;-82
2023/04/26 08:59:13;;;;;;;;;;;;;;;19.42;43.89;99769.21;104953;1288;59682;-82
2023/04/26 09:01:41;;;;;;;;;;;;;;;19.43;43.68;99767.87;105009;1289;72837;-82
2023/04/26 09:04:07;;;;;;;;;;;;;;;19.42;43.78;99772.27;104816;1291;59871;-82
2023/04/26 09:06:33;;;;;;;;;;;;;;;19.41;43.78;99771.44;104768;1289;59662;-81
2023/04/26 09:09:00;;;;;;;;;;;;;;;19.40;43.81;99768.45;104966;1289;59666;-82
2023/04/26 09:11:26;;;;;;;;;;;;;;;19.41;44.03;99770.14;104999;1289;59689;-81
2023/04/26 09:13:51;;;;;;;;;;;;;;;19.42;43.84;99767.79;104792;1289;59927;-82
2023/04/26 09:16:18;;;;;;;;;;;;;;;19.39;43.72;99765.70;104939;1289;60650;-81
2023/04/26 09:18:56;;;;;;;;;;;;;;;19.33;43.67;99769.03;105318;1289;59297;-81
2023/04/26 09:21:21;;;;;;;;;;;;;;;19.31;43.75;99773.70;105068;1289;72565;-81
2023/04/26 09:24:03;;;;;;;;;;;;;;;19.31;43.77;99773.64;104806;1289;59794;-80
2023/04/26 09:26:28;;;;;;;;;;;;;;;19.31;43.62;99772.23;104911;1289;59968;-80
2023/04/26 09:29:09;;;;;;;;;;;;;;;19.32;43.62;99769.13;104461;1288;59784;-80
2023/04/26 09:31:39;;;;;;;;;;;;;;;19.33;43.69;99771.20;104483;1290;72490;-81
2023/04/26 09:34:04;;;;;;;;;;;;;;;19.34;43.59;99774.31;104185;1289;74976;-83
2023/04/26 09:36:30;;;;;;;;;;;;;;;19.34;43.53;99771.86;103936;1289;59784;-82
2023/04/26 09:38:56;;;;;;;;;;;;;;;19.34;43.50;99762.04;104331;1289;59765;-81
2023/04/26 09:41:21;;;;;;;;;;;;;;;19.29;43.23;99770.27;104235;1294;60185;-82
2023/04/26 09:43:49;;;;;;;;;;;;;;;19.25;43.20;99772.15;104336;1289;59771;-82
2023/04/26 09:46:25;;;;;;;;;;;;;;;19.25;43.53;99772.55;103922;1289;60015;-82
2023/04/26 09:49:00;;;;;;;;;;;;;;;19.20;43.30;99771.66;103884;1292;61139;-82
2023/04/26 09:51:27;;;;;;;;;;;;;;;19.14;43.33;99768.27;103738;1289;72919;-83
2023/04/26 09:53:53;;;;;;;;;;;;;;;19.13;43.26;99770.29;104185;1289;72759;-82
2023/04/26 09:56:20;;;;;;;;;;;;;;;19.12;43.37;99772.47;104467;1289;59781;-82
2023/04/26 09:58:50;;;;;;;;;;;;;;;19.14;43.25;99769.45;104629;1289;60050;-82
2023/04/26 10:01:17;;;;;;;;;;;;;;;19.17;43.24;99770.33;104595;1289;72500;-82
2023/04/26 10:03:43;;;;;;;;;;;;;;;19.18;43.27;99772.55;104373;1289;59800;-83
2023/04/26 10:06:09;;;;;;;;;;;;;;;19.19;43.26;99766.95;104095;1290;61549;-82
2023/04/26 10:08:35;;;;;;;;;;;;;;;19.20;43.18;99769.39;104200;1289;59912;-82
2023/04/26 10:11:03;;;;;;;;;;;;;;;19.22;43.22;99771.88;103903;1289;59800;-82
2023/04/26 10:13:33;;;;;;;;;;;;;;;19.20;43.12;99766.67;103981;1289;59780;-82
2023/04/26 10:16:00;;;;;;;;;;;;;;;19.20;43.11;99769.89;104341;1289;60994;-81
2023/04/26 10:18:26;;;;;;;;;;;;;;;19.20;43.04;99769.55;103982;1289;59956;-82
2023/04/26 10:20:53;;;;;;;;;;;;;;;19.19;43.01;99764.21;103848;1289;59800;-81
2023/04/26 10:23:20;;;;;;;;;;;;;;;19.19;42.94;99759.80;104398;1290;73908;-81
2023/04/26 10:25:46;;;;;;;;;;;;;;;19.20;43.05;99765.10;104308;1289;60203;-82
2023/04/26 10:28:14;;;;;;;;;;;;;;;19.21;43.07;99762.65;104302;1289;59826;-81
2023/04/26 10:30:53;;;;;;;;;;;;;;;19.22;43.13;99760.42;104209;1289;73419;-83
2023/04/26 10:33:22;;;;;;;;;;;;;;;19.23;42.98;99753.73;104123;1290;72883;-82
2023/04/26 10:36:11;;;;;;;;;;;;;;;19.26;43.18;99751.58;104120;1289;61293;-81
2023/04/26 10:38:38;;;;;;;;;;;;;;;19.30;43.40;99753.05;104151;1289;59931;-82
2023/04/26 10:41:22;;;;;;;;;;;;;;;19.34;43.41;99754.54;103971;1288;72240;-81
2023/04/26 10:43:48;;;;;;;;;;;;;;;19.37;43.45;99751.80;103979;1289;73910;-81
2023/04/26 10:46:32;;;;;;;;;;;;;;;19.39;43.56;99753.55;103977;1289;60966;-82
2023/04/26 10:48:58;;;;;;;;;;;;;;;19.41;43.37;99746.82;103808;1289;61396;-82
2023/04/26 10:51:23;;;;;;;;;;;;;;;19.42;43.38;99745.81;103942;1289;59997;-82
2023/04/26 10:53:52;;;;;;;;;;;;;;;19.44;43.40;99748.73;103867;1289;59806;-81
2023/04/26 10:56:24;;;;;;;;;;;;;;;19.45;43.36;99744.38;103732;1289;59983;-81
2023/04/26 10:59:08;;;;;;;;;;;;;;;19.46;43.46;99742.66;103910;1288;60539;-82
2023/04/26 11:01:35;;;;;;;;;;;;;;;19.47;43.38;99743.30;104368;1289;72277;-81
2023/04/26 11:04:06;;;;;;;;;;;;;;;19.48;43.39;99741.82;104191;1289;74363;-81
2023/04/26 11:06:51;;;;;;;;;;;;;;;19.48;43.53;99740.35;104136;1289;60687;-82
2023/04/26 11:09:35;;;;;;;;;;;;;;;19.49;43.32;99740.64;103586;1289;60578;-83
2023/04/26 11:12:10;;;;;;;;;;;;;;;19.47;43.39;99741.35;103376;1294;72341;-82
2023/04/26 11:14:35;;;;;;;;;;;;;;;19.47;43.37;99741.20;103617;1289;74872;-81
2023/04/26 11:17:07;;;;;;;;;;;;;;;19.47;43.28;99739.02;103406;1289;60482;-82
2023/04/26 11:19:32;;;;;;;;;;;;;;;19.47;43.28;99740.81;103559;1289;60553;-81
2023/04/26 11:22:01;;;;;;;;;;;;;;;19.47;43.27;99741.54;103272;1289;72726;-82
2023/04/26 11:24:27;;;;;;;;;;;;;;;19.48;43.23;99740.77;103337;1294;60578;-82
2023/04/26 11:26:53;;;;;;;;;;;;;;;19.47;43.29;99737.91;103541;1288;60486;-82
2023/04/26 11:29:19;;;;;;;;;;;;;;;19.48;43.32;99742.35;103883;1289;60657;-82
2023/04/26 11:31:55;;;;;;;;;;;;;;;19.48;43.28;99743.42;103990;1289;61512;-81
2023/04/26 11:34:21;;;;;;;;;;;;;;;19.49;43.24;99742.83;103675;1289;74972;-81
2023/04/26 11:36:50;;;;;;;;;;;;;;;19.49;43.34;99741.40;103595;1289;60463;-83
2023/04/26 11:39:18;;;;;;;;;;;;;;;19.49;43.45;99740.44;103973;1289;60498;-82
2023/04/26 11:41:43;;;;;;;;;;;;;;;19.50;43.38;99738.05;105046;1289;72548;-81
2023/04/26 11:44:11;;;;;;;;;;;;;;;19.50;43.47;99738.44;104573;1289;60610;-82
2023/04/26 11:46:39;;;;;;;;;;;;;;;19.51;43.40;99737.67;103431;1289;60507;-83
2023/04/26 11:49:41;;;;;;;;;;;;;;;19.50;43.46;99739.80;103348;1288;60492;-82
2023/04/26 11:52:07;;;;;;;;;;;;;;;19.51;43.48;99735.64;103529;1289;73645;-82
2023/04/26 11:54:33;;;;;;;;;;;;;;;19.51;43.46;99734.38;103314;1293;61361;-82
2023/04/26 11:57:19;;;;;;;;;;;;;;;19.51;43.47;99732.77;103292;1289;60568;-84
2023/04/26 11:59:45;;;;;;;;;;;;;;;19.51;43.54;99732.80;103430;1289;60427;-83
2023/04/26 12:02:14;;;;;;;;;;;;;;;19.51;43.51;99735.65;103405;1289;60608;-82
2023/04/26 12:04:40;;;;;;;;;;;;;;;19.52;43.55;99738.47;103239;1289;73890;-83
2023/04/26 12:07:09;;;;;;;;;;;;;;;19.52;43.46;99739.38;103266;1289;61344;-83
2023/04/26 12:09:41;;;;;;;;;;;;;;;19.52;43.65;99737.23;103080;1289;61166;-83
2023/04/26 12:12:26;;;;;;;;;;;;;;;;;;;;;
2023/04/26 12:14:52;;;;;;;;;;;;;;;19.51;43.60;99740.47;103263;1288;74706;-82
2023/04/26 12:17:21;;;;;;;;;;;;;;;19.51;43.75;99741.88;103382;1289;60584;-83
2023/04/26 12:19:49;;;;;;;;;;;;;;;19.51;43.62;99742.41;103275;1289;60505;-82
2023/04/26 12:22:27;;;;;;;;;;;;;;;19.51;43.60;99740.66;103062;1289;61041;-82
2023/04/26 12:25:03;;;;;;;;;;;;;;;19.51;43.56;99736.91;103034;1289;74677;-83
2023/04/26 12:27:29;;;;;;;;;;;;;;;19.51;43.75;99739.81;103165;1294;60966;-83
2023/04/26 12:29:57;;;;;;;;;;;;;;;19.51;43.85;99733.91;103154;1289;60585;-84
2023/04/26 12:32:23;;;;;;;;;;;;;;;19.51;43.77;99731.41;103292;1292;72044;-82
2023/04/26 12:34:53;;;;;;;;;;;;;;;19.51;43.72;99731.20;103087;1289;60591;-82
2023/04/26 12:37:21;;;;;;;;;;;;;;;19.51;43.77;99729.27;103036;1289;60773;-83